Maastricht Aachen Airport

EHBK · Limburg, Nederland

METAR historie EHBK · Maastricht Aachen Airport

Hieronder zie je METAR's van de afgelopen dagen. Kies een jaar om door oudere METAR's te bladeren, vanaf het jaar 2007.

9 december 2022

Tijd Code Weer Temp. Zicht Plafond Wind METAR/SPECI
16:25
M
1 °C 10 km+ 1.300 ft 120° 120° 3 kt METAR EHBK 091525Z AUTO 12003KT 090V160 9999 FEW010 OVC013 01/M01 Q1006 NOSIG
15:55
M
2 °C 10 km+ 1.300 ft Var Var 2 kt METAR EHBK 091455Z AUTO VRB02KT 9999 SCT010 OVC013 02/M01 Q1005 BECMG BKN018
15:25
M
2 °C 10 km+ 1.100 ft Var Var 2 kt METAR EHBK 091425Z AUTO VRB02KT 9999 OVC011 02/M01 Q1005 BECMG BKN018
14:55
M
2 °C 9 km 1.200 ft 310° 310° 3 kt METAR EHBK 091355Z AUTO 31003KT 280V340 9000 OVC012 02/M01 Q1005 BECMG BKN018
14:25
M
1 °C 7 km 1.100 ft Var Var 2 kt METAR EHBK 091325Z AUTO VRB02KT 7000 FEW007 SCT009 BKN011 01/M01 Q1005 BECMG BKN018
13:55
I
1 °C 5 km 800 ft 280° 280° 3 kt METAR EHBK 091255Z AUTO 28003KT 230V320 5000 BKN008 OVC009 01/M00 Q1005 BECMG BKN010
13:25
I
1 °C 5 km 700 ft Var Var 2 kt METAR EHBK 091225Z AUTO VRB02KT 5000 FEW003 SCT005 BKN007 01/M00 Q1005 NOSIG
12:55
M
1 °C 5 km 1.200 ft Var Var 2 kt METAR EHBK 091155Z AUTO VRB02KT 5000 FEW007 OVC012 01/00 Q1005 NOSIG
12:25
I
1 °C 3,9 km 700 ft Var Var 2 kt METAR EHBK 091125Z AUTO VRB02KT 3900 BR FEW003 BKN007 OVC009 01/M00 Q1006 BECMG 5000
11:55
I
1 °C 2,9 km 800 ft 310° 310° 3 kt METAR EHBK 091055Z AUTO 31003KT 2900 BR FEW004 OVC008 01/M00 Q1006 TEMPO 4000
11:25
L
1 °C 3 km 300 ft Var Var 2 kt METAR EHBK 091025Z AUTO VRB02KT 3000 BR FEW002 BKN003 BKN005 01/M00 Q1006 TEMPO BKN006
10:55
L
0 °C 2,7 km 300 ft Var Var 2 kt METAR EHBK 090955Z AUTO VRB02KT 2700 BR SCT001 OVC003 00/M00 Q1006 TEMPO 4000 BKN006
10:25
L
0 °C 2,6 km 100 ft 310° 310° 3 kt METAR EHBK 090925Z AUTO 31003KT 270V350 2600 BR BKN001 BKN002 OVC004 00/M00 Q1006 TEMPO 4000 BKN006
09:55
I
0 °C 3,1 km 500 ft 280° 280° 3 kt METAR EHBK 090855Z AUTO 28003KT 240V320 3100 BR FEW002 OVC005 00/M00 Q1006 TEMPO 5000
09:25
I
0 °C 4,8 km 500 ft Var Var 2 kt METAR EHBK 090825Z AUTO VRB02KT 4800 BR OVC005 00/M00 Q1006 NOSIG
08:55
I
0 °C 4,9 km 500 ft 320° 320° 2 kt METAR EHBK 090755Z AUTO 32002KT 4900 BR OVC005 00/M00 Q1006 NOSIG
08:25
I
1 °C 5 km 600 ft Var Var 1 kt METAR EHBK 090725Z AUTO VRB01KT 5000 SCT005 OVC006 01/M01 Q1005 NOSIG
07:55
I
0 °C 5 km 500 ft Var Var 2 kt METAR EHBK 090655Z AUTO VRB02KT 5000 OVC005 00/M01 Q1005 NOSIG
07:25
I
0 °C 4,9 km 500 ft 140° 140° 2 kt METAR EHBK 090625Z AUTO 14002KT 4900 BR OVC005 00/M00 Q1005 NOSIG
06:55
I
0 °C 7 km 800 ft Var Var 2 kt METAR EHBK 090555Z AUTO VRB02KT 7000 FEW006 BKN008 BKN016 00/M01 Q1005 NOSIG
06:25
I
1 °C 7 km 800 ft 250° 250° 3 kt METAR EHBK 090525Z AUTO 25003KT 220V280 7000 OVC008 01/M00 Q1005 NOSIG
05:55
I
1 °C 5 km 900 ft 210° 210° 4 kt METAR EHBK 090455Z AUTO 21004KT 5000 FEW008 OVC009 01/M00 Q1006 NOSIG
05:25
M
0 °C 5 km 1.000 ft 210° 210° 4 kt METAR EHBK 090425Z AUTO 21004KT 5000 OVC010 00/M00 Q1006
04:55
I
0 °C 6 km 900 ft 220° 220° 3 kt METAR EHBK 090355Z AUTO 22003KT 6000 OVC009 00/M00 Q1006
04:25
I
0 °C 6 km 900 ft 220° 220° 5 kt METAR EHBK 090325Z AUTO 22005KT 6000 OVC009 M00/M01 Q1006
03:55
M
0 °C 7 km 1.700 ft 210° 210° 6 kt METAR EHBK 090255Z AUTO 21006KT 7000 OVC017 00/M01 Q1006
03:25
M
0 °C 7 km 1.700 ft 210° 210° 7 kt METAR EHBK 090225Z AUTO 21007KT 7000 SCT009 BKN017 BKN021 00/M01 Q1006
02:55
M
1 °C 9 km 1.000 ft 200° 200° 7 kt METAR EHBK 090155Z AUTO 20007KT 9000 OVC010 01/M01 Q1006
02:25
M
0 °C 8 km 1.100 ft 210° 210° 7 kt METAR EHBK 090125Z AUTO 21007KT 8000 OVC011 00/M01 Q1006
01:55
M
0 °C 8 km 1.200 ft 200° 200° 7 kt METAR EHBK 090055Z AUTO 20007KT 8000 OVC012 00/M01 Q1006
01:25
V
0 °C 8 km 3.200 ft 200° 200° 6 kt METAR EHBK 090025Z AUTO 20006KT 8000 SCT021/// BKN032/// M00/M01 Q1006
00:55
V
0 °C 8 km - 200° 200° 7 kt METAR EHBK 082355Z AUTO 20007KT 8000 SCT015 M00/M01 Q1007
00:25
V
0 °C 8 km - 200° 200° 7 kt METAR EHBK 082325Z AUTO 20007KT 8000 FEW027 M00/M01 Q1007

8 december 2022

Tijd Code Weer Temp. Zicht Plafond Wind METAR/SPECI
23:55
V
0 °C 10 km+ - 200° 200° 8 kt METAR EHBK 082255Z AUTO 20008KT 9999 FEW030 00/M01 Q1007
23:25
V
0 °C 10 km+ - 200° 200° 9 kt METAR EHBK 082225Z AUTO 20009KT 9999 FEW036 00/M01 Q1007 TEMPO BKN012
22:55
V
0 °C 9 km - 210° 210° 8 kt METAR EHBK 082155Z AUTO 21008KT 9000 SCT010 SCT037 M00/M01 Q1007 TEMPO BKN012
22:25
V
0 °C 10 km+ - 210° 210° 8 kt METAR EHBK 082125Z AUTO 21008KT 9999 FEW011 00/M01 Q1007 TEMPO BKN012
21:55
V
1 °C 10 km+ - 210° 210° 9 kt METAR EHBK 082055Z AUTO 21009KT 9999 FEW011 01/M01 Q1007 NOSIG
21:25
V
1 °C 10 km+ - 210° 210° 9 kt METAR EHBK 082025Z AUTO 21009KT 9999 SCT024 01/M01 Q1007 NOSIG
20:55
V
1 °C 10 km+ - 200° 200° 8 kt METAR EHBK 081955Z AUTO 20008KT 9999 FEW028 01/M01 Q1007 NOSIG
20:25
M
1 °C 10 km+ 1.400 ft 200° 200° 6 kt METAR EHBK 081925Z AUTO 20006KT 9999 BKN014 OVC028 01/M01 Q1007 NOSIG
19:55
M
2 °C 10 km+ 1.400 ft 210° 210° 6 kt METAR EHBK 081855Z AUTO 21006KT 9999 BKN014 OVC017 02/00 Q1007 NOSIG
19:25
V
2 °C 10 km+ 4.500 ft 230° 230° 5 kt METAR EHBK 081825Z AUTO 23005KT 9999 BKN045 BKN049 02/00 Q1007 NOSIG
18:55
M
2 °C 10 km+ 1.700 ft 240° 240° 6 kt METAR EHBK 081755Z AUTO 24006KT 200V280 9999 OVC017 02/00 Q1007 NOSIG
18:25
M
3 °C 10 km+ 1.500 ft 240° 240° 8 kt METAR EHBK 081725Z AUTO 24008KT 210V280 9999 FEW013 BKN015 BKN020 03/00 Q1007 NOSIG
17:55
M
3 °C 10 km+ 1.600 ft 240° 240° 8 kt METAR EHBK 081655Z AUTO 24008KT 190V270 9999 BKN016 BKN019 BKN025 03/00 Q1007 NOSIG
17:25
M
3 °C 10 km+ 2.700 ft 230° 230° 10 kt METAR EHBK 081625Z AUTO 23010KT 200V260 9999 OVC027/// 03/00 Q1007 NOSIG
16:55
V
4 °C 10 km+ 4.700 ft 230° 230° 10 kt METAR EHBK 081555Z AUTO 23010KT 9999 FEW037 SCT042 BKN047 04/01 Q1007 NOSIG
16:25
V
4 °C 10 km+ 4.500 ft 230° 230° 10 kt METAR EHBK 081525Z AUTO 23010KT 9999 FEW030 SCT037 BKN045 04/01 Q1007 NOSIG
15:55
M
4 °C 10 km+ 2.400 ft 230° 230° 11 kt METAR EHBK 081455Z AUTO 23011KT 200V260 9999 FEW017 SCT020 BKN024 04/01 Q1007 NOSIG
15:25
M
4 °C 10 km+ 2.000 ft 230° 230° 8 kt METAR EHBK 081425Z AUTO 23008KT 200V260 9999 SCT016 OVC020 04/01 Q1007 NOSIG
14:55
M
4 °C 10 km+ 1.600 ft 250° 250° 7 kt METAR EHBK 081355Z AUTO 25007KT 220V290 9999 BKN016 OVC020 04/01 Q1007 NOSIG
14:25
M
4 °C 10 km+ 1.500 ft 250° 250° 8 kt METAR EHBK 081325Z AUTO 25008KT 210V280 9999 BKN015 OVC018 04/01 Q1007 NOSIG
13:55
V
4 °C 10 km+ - 240° 240° 8 kt METAR EHBK 081255Z AUTO 24008KT 210V270 9999 FEW014 04/01 Q1007 NOSIG
13:25
V
4 °C 10 km+ - 240° 240° 8 kt METAR EHBK 081225Z AUTO 24008KT 200V270 9999 FEW012 SCT015 04/01 Q1008 NOSIG
12:55
M
4 °C 10 km+ 1.400 ft 230° 230° 9 kt METAR EHBK 081155Z AUTO 23009KT 210V270 9999 SCT011 BKN014 OVC049 04/01 Q1008 NOSIG
12:25
V
4 °C 10 km+ 4.500 ft 230° 230° 8 kt METAR EHBK 081125Z AUTO 23008KT 200V260 9999 FEW011 BKN045 OVC049 04/01 Q1008 NOSIG
11:55
V
4 °C 10 km+ - 230° 230° 9 kt METAR EHBK 081055Z AUTO 23009KT 200V260 9999 FEW010 04/01 Q1008 NOSIG
11:25
V
3 °C 10 km+ 4.400 ft 230° 230° 8 kt METAR EHBK 081025Z AUTO 23008KT 200V270 9999 FEW009 BKN044 OVC049 03/02 Q1009 NOSIG
10:55
M
3 °C 10 km+ 1.100 ft 230° 230° 8 kt METAR EHBK 080955Z AUTO 23008KT 9999 FEW008/// SCT009/// BKN011/// 03/02 Q1009 TEMPO BKN008
10:25
M
3 °C 9 km 1.100 ft 230° 230° 8 kt METAR EHBK 080925Z AUTO 23008KT 200V260 9000 -RA FEW007 SCT009 BKN011 03/02 Q1009 TEMPO 7000 -SHRA FEW020CB
09:55
I
3 °C 9 km 900 ft 230° 230° 8 kt METAR EHBK 080855Z AUTO 23008KT 9000 SCT008 BKN009 OVC010 03/02 Q1009 TEMPO 7000 -SHRA FEW020CB
09:25
I
3 °C 8 km 800 ft 230° 230° 6 kt METAR EHBK 080825Z AUTO 23006KT 200V260 8000 -DZ SCT007 BKN008 OVC010 03/02 Q1009 REDZ TEMPO 4000 SHRA FEW020CB
08:55
I
3 °C 8 km 800 ft 230° 230° 9 kt METAR EHBK 080755Z AUTO 23009KT 210V270 8000 DZ FEW003 SCT006 BKN008 03/02 Q1009 TEMPO 4000 SHRA FEW020CB
08:25
I
3 °C 8 km 500 ft 240° 240° 7 kt METAR EHBK 080725Z AUTO 24007KT 200V280 8000 BKN005 OVC007 03/02 Q1009 REDZ TEMPO 4000 -SHRA FEW020CB
07:55
I
3 °C 8 km 600 ft 240° 240° 8 kt METAR EHBK 080655Z AUTO 24008KT 200V280 8000 BKN006 OVC007 03/02 Q1009 TEMPO 4000 -SHRA FEW020CB
07:25
I
3 °C 9 km 700 ft 240° 240° 8 kt METAR EHBK 080625Z AUTO 24008KT 210V280 9000 BKN007 OVC008 03/02 Q1009 REDZ TEMPO 4000 -SHRA FEW020CB
06:55
I
3 °C 6 km 700 ft 250° 250° 7 kt METAR EHBK 080555Z AUTO 25007KT 210V290 6000 -RA BKN007 OVC008 03/02 Q1009 TEMPO 4000 -SHRA FEW020CB
06:25
I
3 °C 8 km 600 ft 240° 240° 8 kt METAR EHBK 080525Z AUTO 24008KT 200V280 8000 BKN006 OVC007 03/02 Q1009 TEMPO 4000 -SHRA FEW020CB
05:55
I
3 °C 8 km 700 ft 250° 250° 8 kt METAR EHBK 080455Z AUTO 25008KT 220V280 8000 BKN007 FEW015CB 03/02 Q1009 NOSIG
05:25
I
3 °C 8 km 600 ft 240° 240° 8 kt METAR EHBK 080425Z AUTO 24008KT 210V300 8000 BKN006 OVC008 03/02 Q1010
04:55
I
3 °C 7 km 600 ft 240° 240° 9 kt METAR EHBK 080355Z AUTO 24009KT 210V280 7000 BKN006 OVC007 03/02 Q1010
04:25
I
4 °C 7 km 600 ft 240° 240° 9 kt METAR EHBK 080325Z AUTO 24009KT 210V300 7000 SCT005 OVC006 04/03 Q1010 REDZ
03:55
L
4 °C 7 km 400 ft 240° 240° 8 kt METAR EHBK 080255Z AUTO 24008KT 210V280 7000 -DZ BKN004 OVC005 04/03 Q1010
03:25
I
4 °C 8 km 600 ft 240° 240° 7 kt METAR EHBK 080225Z AUTO 24007KT 210V280 8000 DZ SCT005 BKN006 OVC008 04/03 Q1011
02:55
I
4 °C 10 km+ 600 ft 240° 240° 8 kt METAR EHBK 080155Z AUTO 24008KT 210V280 9999 BKN006 BKN007 FEW015CB 04/02 Q1011
02:25
I
3 °C 10 km+ 700 ft 240° 240° 8 kt METAR EHBK 080125Z AUTO 24008KT 9999 BKN007 OVC008 03/02 Q1011
01:55
I
3 °C 10 km+ 500 ft 240° 240° 8 kt METAR EHBK 080055Z AUTO 24008KT 210V280 9999 BKN005 OVC006 03/03 Q1011
01:25
I
4 °C 9 km 500 ft 240° 240° 8 kt METAR EHBK 080025Z AUTO 24008KT 210V280 9000 BKN005/// OVC006/// 04/03 Q1011
00:55
L
4 °C 8 km 400 ft 240° 240° 7 kt METAR EHBK 072355Z AUTO 24007KT 210V270 8000 BKN004 OVC005 04/03 Q1012
00:25
L
4 °C 8 km 400 ft 240° 240° 6 kt METAR EHBK 072325Z AUTO 24006KT 210V280 8000 BKN004 OVC005 04/03 Q1012

7 december 2022

Tijd Code Weer Temp. Zicht Plafond Wind METAR/SPECI
23:55
I
4 °C 8 km 500 ft 250° 250° 6 kt METAR EHBK 072255Z AUTO 25006KT 210V290 8000 SCT004 BKN005 OVC006 04/03 Q1012
23:25
I
4 °C 8 km 600 ft 250° 250° 5 kt METAR EHBK 072225Z AUTO 25005KT 220V280 8000 FEW004 SCT005 BKN006 04/03 Q1013
22:55
I
4 °C 9 km 700 ft 240° 240° 6 kt METAR EHBK 072155Z AUTO 24006KT 210V280 9000 -DZ FEW004 SCT005 BKN007 04/03 Q1013
22:25
I
4 °C 9 km 700 ft 240° 240° 6 kt METAR EHBK 072125Z AUTO 24006KT 210V270 9000 SCT005 BKN007 OVC008 04/03 Q1013 TEMPO 7000
21:55
I
4 °C 8 km 600 ft 240° 240° 7 kt METAR EHBK 072055Z AUTO 24007KT 8000 -DZ FEW005 BKN006 BKN008 04/03 Q1013 TEMPO BKN006
21:25
I
4 °C 10 km+ 600 ft 240° 240° 6 kt METAR EHBK 072025Z AUTO 24006KT 210V280 9999 FEW004 SCT005 BKN006 04/03 Q1013 NOSIG
20:55
I
4 °C 10 km+ 600 ft 230° 230° 5 kt METAR EHBK 071955Z AUTO 23005KT 9999 FEW004 BKN006 BKN007 04/03 Q1014 BECMG BKN040
20:25
V
4 °C 10 km+ 3.700 ft 240° 240° 5 kt METAR EHBK 071925Z AUTO 24005KT 220V300 9999 FEW006 SCT033 BKN037 04/03 Q1014 NOSIG
19:55
V
4 °C 10 km+ - 240° 240° 6 kt METAR EHBK 071855Z AUTO 24006KT 9999 FEW006 SCT049 04/03 Q1014 NOSIG
19:25
V
4 °C 10 km+ - 240° 240° 5 kt METAR EHBK 071825Z AUTO 24005KT 210V280 9999 NSC 04/03 Q1014 NOSIG
18:55
V
4 °C 10 km+ - 250° 250° 5 kt METAR EHBK 071755Z AUTO 25005KT 210V280 9999 NSC 04/03 Q1014 NOSIG
18:25
V
4 °C 10 km+ - 250° 250° 4 kt METAR EHBK 071725Z AUTO 25004KT 210V290 9999 SCT031 SCT045 04/03 Q1014 NOSIG
17:55
V
4 °C 10 km+ 3.900 ft 250° 250° 5 kt METAR EHBK 071655Z AUTO 25005KT 220V290 9999 FEW010 BKN039 04/03 Q1014 NOSIG
17:25
V
5 °C 10 km+ 3.600 ft 240° 240° 5 kt METAR EHBK 071625Z AUTO 24005KT 210V270 9999 SCT024 OVC036 05/03 Q1015 TEMPO BKN012
16:55
V
4 °C 10 km+ - 240° 240° 5 kt METAR EHBK 071555Z AUTO 24005KT 210V270 9999 FEW013 04/03 Q1015 TEMPO BKN012
16:25
V
4 °C 10 km+ - 250° 250° 3 kt METAR EHBK 071525Z AUTO 25003KT 220V310 9999 NSC 04/03 Q1015 TEMPO BKN012
15:55
V
5 °C 10 km+ 4.300 ft 260° 260° 4 kt METAR EHBK 071455Z AUTO 26004KT 220V300 9999 FEW010 BKN043 05/03 Q1015 TEMPO BKN012
15:25
M
5 °C 10 km+ 1.300 ft 270° 270° 5 kt METAR EHBK 071425Z AUTO 27005KT 220V310 9999 BKN013 OVC016 05/04 Q1015 NOSIG
14:55
M
6 °C 10 km+ 1.000 ft 260° 260° 4 kt METAR EHBK 071355Z AUTO 26004KT 220V290 9999 SCT009 BKN010 OVC014 06/04 Q1016 TEMPO BKN012
14:25
M
6 °C 10 km+ 1.000 ft 250° 250° 4 kt METAR EHBK 071325Z AUTO 25004KT 220V290 9999 FEW009 BKN010 OVC013 06/04 Q1016 TEMPO BKN012
13:55
I
5 °C 10 km+ 900 ft 240° 240° 6 kt METAR EHBK 071255Z AUTO 24006KT 210V270 9999 FEW008 BKN009 OVC010 05/04 Q1016 TEMPO BKN012
13:25
I
5 °C 10 km+ 900 ft 240° 240° 7 kt METAR EHBK 071225Z AUTO 24007KT 210V270 9999 SCT007 BKN009 OVC011 05/04 Q1016 TEMPO BKN020
12:55
V
5 °C 10 km+ - 240° 240° 7 kt METAR EHBK 071155Z AUTO 24007KT 200V270 9999 SCT022 05/04 Q1017 TEMPO 7000
12:25
V
5 °C 9 km - 230° 230° 7 kt METAR EHBK 071125Z AUTO 23007KT 210V270 9000 FEW038 05/04 Q1017 BECMG 9999
11:55
I
4 °C 4,6 km 3.600 ft 230° 230° 6 kt METAR EHBK 071055Z AUTO 23006KT 4600 BR FEW002 SCT028 BKN036 04/03 Q1017 BECMG 9999 BKN006
11:25
L
4 °C 4,8 km 200 ft 240° 240° 6 kt METAR EHBK 071025Z AUTO 24006KT 4800 BR SCT001 BKN002 BKN006 04/04 Q1017 BECMG 7000 NSW BKN006
10:55
L
4 °C 2,4 km 100 ft 250° 250° 6 kt METAR EHBK 070955Z AUTO 25006KT 210V280 2400 BR BKN001 OVC002 04/04 Q1018 BECMG 4000 BR BKN003

Wij en derden volgen je internetgedrag op onze website met cookies. Als je doorgaat, gaan we ervan uit dat je akkoord gaat met onze cookiebeleid.